sensor_id;sensor_type;location;lat;lon;timestamp;P1;durP1;ratioP1;P2;durP2;ratioP2
76560;SDS011;65419;44.500;0.210;2022-11-27T00:04:30;45.30;;;15.23;;
76560;SDS011;65419;44.500;0.210;2022-11-27T00:15:01;79.30;;;15.90;;
76560;SDS011;65419;44.500;0.210;2022-11-27T00:25:32;26.17;;;9.30;;
76560;SDS011;65419;44.500;0.210;2022-11-27T00:36:03;20.67;;;9.17;;
76560;SDS011;65419;44.500;0.210;2022-11-27T00:46:34;28.80;;;10.60;;
76560;SDS011;65419;44.500;0.210;2022-11-27T00:57:04;82.73;;;14.90;;
76560;SDS011;65419;44.500;0.210;2022-11-27T01:07:34;45.53;;;12.67;;
76560;SDS011;65419;44.500;0.210;2022-11-27T01:18:07;149.20;;;17.50;;
76560;SDS011;65419;44.500;0.210;2022-11-27T01:28:39;26.17;;;6.67;;
76560;SDS011;65419;44.500;0.210;2022-11-27T01:39:09;90.03;;;13.30;;
76560;SDS011;65419;44.500;0.210;2022-11-27T01:49:40;13.97;;;5.60;;
76560;SDS011;65419;44.500;0.210;2022-11-27T02:00:14;34.07;;;11.87;;
76560;SDS011;65419;44.500;0.210;2022-11-27T02:10:43;13.23;;;8.43;;
76560;SDS011;65419;44.500;0.210;2022-11-27T02:21:13;9.00;;;4.43;;
76560;SDS011;65419;44.500;0.210;2022-11-27T02:31:45;14.67;;;7.27;;
76560;SDS011;65419;44.500;0.210;2022-11-27T02:42:15;24.33;;;10.90;;
76560;SDS011;65419;44.500;0.210;2022-11-27T02:52:48;13.03;;;6.60;;
76560;SDS011;65419;44.500;0.210;2022-11-27T03:03:18;21.13;;;9.40;;
76560;SDS011;65419;44.500;0.210;2022-11-27T03:13:49;13.80;;;7.10;;
76560;SDS011;65419;44.500;0.210;2022-11-27T03:24:19;26.87;;;10.13;;
76560;SDS011;65419;44.500;0.210;2022-11-27T03:34:51;120.30;;;15.23;;
76560;SDS011;65419;44.500;0.210;2022-11-27T03:45:24;86.97;;;14.87;;
76560;SDS011;65419;44.500;0.210;2022-11-27T03:55:54;46.63;;;10.20;;
76560;SDS011;65419;44.500;0.210;2022-11-27T04:06:24;21.53;;;8.63;;
76560;SDS011;65419;44.500;0.210;2022-11-27T04:16:55;21.13;;;6.00;;
76560;SDS011;65419;44.500;0.210;2022-11-27T04:27:25;52.77;;;11.03;;
76560;SDS011;65419;44.500;0.210;2022-11-27T04:37:56;21.17;;;6.13;;
76560;SDS011;65419;44.500;0.210;2022-11-27T04:48:27;19.63;;;6.40;;
76560;SDS011;65419;44.500;0.210;2022-11-27T04:58:58;41.27;;;6.57;;
76560;SDS011;65419;44.500;0.210;2022-11-27T05:09:29;55.60;;;14.57;;
76560;SDS011;65419;44.500;0.210;2022-11-27T05:20:00;16.93;;;5.37;;
76560;SDS011;65419;44.500;0.210;2022-11-27T05:30:30;20.80;;;9.13;;
76560;SDS011;65419;44.500;0.210;2022-11-27T05:41:01;12.13;;;7.07;;
76560;SDS011;65419;44.500;0.210;2022-11-27T05:51:33;8.83;;;4.43;;
76560;SDS011;65419;44.500;0.210;2022-11-27T06:02:05;-1.00;;;-1.00;;
76560;SDS011;65419;44.500;0.210;2022-11-27T06:12:36;13.17;;;7.00;;
76560;SDS011;65419;44.500;0.210;2022-11-27T06:23:07;21.17;;;7.97;;
76560;SDS011;65419;44.500;0.210;2022-11-27T06:33:38;14.77;;;7.43;;
76560;SDS011;65419;44.500;0.210;2022-11-27T06:44:10;9.70;;;5.80;;
76560;SDS011;65419;44.500;0.210;2022-11-27T06:54:40;13.23;;;4.97;;
76560;SDS011;65419;44.500;0.210;2022-11-27T07:05:11;17.20;;;7.13;;
76560;SDS011;65419;44.500;0.210;2022-11-27T07:15:42;19.67;;;6.57;;
76560;SDS011;65419;44.500;0.210;2022-11-27T07:26:14;9.23;;;4.70;;
76560;SDS011;65419;44.500;0.210;2022-11-27T07:36:45;16.00;;;6.10;;
76560;SDS011;65419;44.500;0.210;2022-11-27T07:47:16;8.83;;;4.70;;
76560;SDS011;65419;44.500;0.210;2022-11-27T07:57:48;10.53;;;4.57;;
76560;SDS011;65419;44.500;0.210;2022-11-27T08:08:19;7.47;;;5.63;;
76560;SDS011;65419;44.500;0.210;2022-11-27T08:18:51;9.07;;;4.27;;
76560;SDS011;65419;44.500;0.210;2022-11-27T08:29:23;10.53;;;3.40;;
76560;SDS011;65419;44.500;0.210;2022-11-27T08:39:54;5.70;;;3.27;;
76560;SDS011;65419;44.500;0.210;2022-11-27T08:50:25;-1.00;;;-1.00;;
76560;SDS011;65419;44.500;0.210;2022-11-27T09:00:56;5.77;;;3.40;;
76560;SDS011;65419;44.500;0.210;2022-11-27T09:11:26;6.43;;;2.63;;
76560;SDS011;65419;44.500;0.210;2022-11-27T09:21:56;2.60;;;2.17;;
76560;SDS011;65419;44.500;0.210;2022-11-27T09:32:29;8.67;;;3.07;;
76560;SDS011;65419;44.500;0.210;2022-11-27T09:43:03;5.07;;;2.43;;
76560;SDS011;65419;44.500;0.210;2022-11-27T09:53:31;8.40;;;2.50;;
76560;SDS011;65419;44.500;0.210;2022-11-27T10:04:03;4.60;;;3.03;;
76560;SDS011;65419;44.500;0.210;2022-11-27T10:14:38;3.97;;;2.43;;
76560;SDS011;65419;44.500;0.210;2022-11-27T10:25:09;5.10;;;2.47;;
76560;SDS011;65419;44.500;0.210;2022-11-27T10:35:38;4.67;;;2.13;;
76560;SDS011;65419;44.500;0.210;2022-11-27T10:46:10;3.07;;;1.77;;
76560;SDS011;65419;44.500;0.210;2022-11-27T10:56:47;2.83;;;1.73;;
76560;SDS011;65419;44.500;0.210;2022-11-27T11:07:20;3.03;;;1.67;;
76560;SDS011;65419;44.500;0.210;2022-11-27T11:28:14;1.70;;;1.40;;
76560;SDS011;65419;44.500;0.210;2022-11-27T11:38:45;3.80;;;1.90;;
76560;SDS011;65419;44.500;0.210;2022-11-27T11:49:17;2.23;;;2.00;;
76560;SDS011;65419;44.500;0.210;2022-11-27T11:59:47;5.07;;;1.97;;
76560;SDS011;65419;44.500;0.210;2022-11-27T12:10:20;4.27;;;2.47;;
76560;SDS011;65419;44.500;0.210;2022-11-27T12:31:22;2.57;;;2.27;;
76560;SDS011;65419;44.500;0.210;2022-11-27T12:41:53;3.07;;;2.07;;
76560;SDS011;65419;44.500;0.210;2022-11-27T12:52:21;2.67;;;1.90;;
76560;SDS011;65419;44.500;0.210;2022-11-27T13:02:55;4.80;;;1.93;;
76560;SDS011;65419;44.500;0.210;2022-11-27T13:13:22;2.40;;;1.93;;
76560;SDS011;65419;44.500;0.210;2022-11-27T13:23:52;2.70;;;1.77;;
76560;SDS011;65419;44.500;0.210;2022-11-27T13:34:25;3.90;;;2.17;;
76560;SDS011;65419;44.500;0.210;2022-11-27T13:44:57;2.30;;;2.10;;
76560;SDS011;65419;44.500;0.210;2022-11-27T13:55:27;3.47;;;2.03;;
76560;SDS011;65419;44.500;0.210;2022-11-27T14:05:59;4.13;;;2.10;;
76560;SDS011;65419;44.500;0.210;2022-11-27T14:16:30;3.13;;;2.03;;
76560;SDS011;65419;44.500;0.210;2022-11-27T14:26:59;3.30;;;1.87;;
76560;SDS011;65419;44.500;0.210;2022-11-27T14:37:30;3.83;;;3.10;;
76560;SDS011;65419;44.500;0.210;2022-11-27T14:48:01;4.43;;;2.20;;
76560;SDS011;65419;44.500;0.210;2022-11-27T14:58:32;4.43;;;3.07;;
76560;SDS011;65419;44.500;0.210;2022-11-27T15:09:02;7.90;;;4.00;;
76560;SDS011;65419;44.500;0.210;2022-11-27T15:19:33;4.33;;;2.80;;
76560;SDS011;65419;44.500;0.210;2022-11-27T15:30:12;5.10;;;2.97;;
76560;SDS011;65419;44.500;0.210;2022-11-27T15:40:34;3.93;;;2.33;;
76560;SDS011;65419;44.500;0.210;2022-11-27T15:51:05;4.30;;;2.63;;
76560;SDS011;65419;44.500;0.210;2022-11-27T16:01:36;5.00;;;3.13;;
76560;SDS011;65419;44.500;0.210;2022-11-27T16:12:06;5.13;;;3.17;;
76560;SDS011;65419;44.500;0.210;2022-11-27T16:22:37;-1.00;;;-1.00;;
76560;SDS011;65419;44.500;0.210;2022-11-27T16:33:07;5.40;;;3.30;;
76560;SDS011;65419;44.500;0.210;2022-11-27T16:43:38;3.40;;;2.50;;
76560;SDS011;65419;44.500;0.210;2022-11-27T16:54:09;6.50;;;2.87;;
76560;SDS011;65419;44.500;0.210;2022-11-27T17:04:40;6.63;;;2.50;;
76560;SDS011;65419;44.500;0.210;2022-11-27T17:15:09;4.20;;;2.63;;
76560;SDS011;65419;44.500;0.210;2022-11-27T17:25:41;4.80;;;2.03;;
76560;SDS011;65419;44.500;0.210;2022-11-27T17:36:13;7.70;;;3.40;;
76560;SDS011;65419;44.500;0.210;2022-11-27T17:46:49;8.60;;;2.80;;
76560;SDS011;65419;44.500;0.210;2022-11-27T17:57:15;8.43;;;3.00;;
76560;SDS011;65419;44.500;0.210;2022-11-27T18:07:45;7.30;;;2.27;;
76560;SDS011;65419;44.500;0.210;2022-11-27T18:18:17;3.40;;;2.47;;
76560;SDS011;65419;44.500;0.210;2022-11-27T18:28:47;3.60;;;2.60;;
76560;SDS011;65419;44.500;0.210;2022-11-27T18:39:18;7.50;;;2.90;;
76560;SDS011;65419;44.500;0.210;2022-11-27T18:49:49;5.10;;;3.00;;
76560;SDS011;65419;44.500;0.210;2022-11-27T19:00:21;6.60;;;3.53;;
76560;SDS011;65419;44.500;0.210;2022-11-27T19:10:50;3.97;;;2.77;;
76560;SDS011;65419;44.500;0.210;2022-11-27T19:21:22;5.33;;;3.47;;
76560;SDS011;65419;44.500;0.210;2022-11-27T19:31:54;3.77;;;2.90;;
76560;SDS011;65419;44.500;0.210;2022-11-27T19:42:23;6.80;;;4.47;;
76560;SDS011;65419;44.500;0.210;2022-11-27T19:52:55;5.00;;;3.00;;
76560;SDS011;65419;44.500;0.210;2022-11-27T20:03:25;6.70;;;3.57;;
76560;SDS011;65419;44.500;0.210;2022-11-27T20:13:56;8.60;;;5.13;;
76560;SDS011;65419;44.500;0.210;2022-11-27T20:24:26;15.27;;;5.83;;
76560;SDS011;65419;44.500;0.210;2022-11-27T20:34:57;8.10;;;5.43;;
76560;SDS011;65419;44.500;0.210;2022-11-27T20:45:28;10.37;;;5.10;;
76560;SDS011;65419;44.500;0.210;2022-11-27T20:56:00;5.87;;;3.03;;
76560;SDS011;65419;44.500;0.210;2022-11-27T21:06:31;3.43;;;2.33;;
76560;SDS011;65419;44.500;0.210;2022-11-27T21:17:02;14.33;;;6.30;;
76560;SDS011;65419;44.500;0.210;2022-11-27T21:27:30;12.40;;;3.43;;
76560;SDS011;65419;44.500;0.210;2022-11-27T21:38:02;9.30;;;2.77;;
76560;SDS011;65419;44.500;0.210;2022-11-27T21:48:33;4.43;;;2.83;;
76560;SDS011;65419;44.500;0.210;2022-11-27T21:59:05;6.63;;;3.27;;
76560;SDS011;65419;44.500;0.210;2022-11-27T22:09:36;6.53;;;2.67;;
76560;SDS011;65419;44.500;0.210;2022-11-27T22:20:07;6.03;;;3.43;;
76560;SDS011;65419;44.500;0.210;2022-11-27T22:30:39;5.53;;;4.40;;
76560;SDS011;65419;44.500;0.210;2022-11-27T22:41:10;13.53;;;4.53;;
76560;SDS011;65419;44.500;0.210;2022-11-27T22:51:40;3.87;;;2.23;;
76560;SDS011;65419;44.500;0.210;2022-11-27T23:02:11;2.50;;;1.93;;
76560;SDS011;65419;44.500;0.210;2022-11-27T23:12:43;4.33;;;1.80;;
76560;SDS011;65419;44.500;0.210;2022-11-27T23:23:14;12.57;;;3.60;;
76560;SDS011;65419;44.500;0.210;2022-11-27T23:33:46;4.80;;;2.93;;
76560;SDS011;65419;44.500;0.210;2022-11-27T23:44:17;2.03;;;1.93;;
76560;SDS011;65419;44.500;0.210;2022-11-27T23:54:47;4.43;;;2.07;;
